Time;durP1;ratioP1;P1;durP2;ratioP2;P2;SDS_P1;SDS_P2;PMS_P1;PMS_P2;Temp;Humidity;BMP_temperature;BMP_pressure;BME280_temperature;BME280_humidity;BME280_pressure;Samples;Min_cycle;Max_cycle;Signal;HPM_P1;HPM_P2
2023/12/25 00:02:02;;;;;;;3.05;0.68;;;;;;;9.55;90.25;96929.28;5005824;28;20666;-66
2023/12/25 00:04:29;;;;;;;2.20;0.70;;;;;;;9.56;90.60;96922.81;5002950;28;20038;-66
2023/12/25 00:06:56;;;;;;;1.65;0.75;;;;;;;9.48;90.84;96921.41;5005017;28;20133;-68
2023/12/25 00:09:22;;;;;;;1.83;0.65;;;;;;;9.52;91.33;96922.53;5003625;28;20034;-66
2023/12/25 00:11:49;;;;;;;3.40;0.88;;;;;;;9.48;91.39;96927.59;5000580;28;20391;-66
2023/12/25 00:14:16;;;;;;;3.55;0.77;;;;;;;9.43;92.00;96927.56;4997057;28;20052;-67
2023/12/25 00:16:42;;;;;;;4.20;0.80;;;;;;;9.47;92.02;96920.56;5000804;28;20121;-67
2023/12/25 00:19:09;;;;;;;1.88;0.55;;;;;;;9.35;92.81;96920.75;5001441;28;20120;-66
2023/12/25 00:21:36;;;;;;;3.22;1.10;;;;;;;9.36;92.92;96926.94;5003389;28;20057;-67
2023/12/25 00:24:04;;;;;;;6.43;1.17;;;;;;;9.29;93.45;96915.53;5003528;28;20117;-66
2023/12/25 00:26:31;;;;;;;3.35;0.70;;;;;;;9.23;93.61;96918.19;5002552;28;20045;-66
2023/12/25 00:29:01;;;;;;;1.42;0.60;;;;;;;9.22;94.35;96907.66;5003875;28;20046;-66
2023/12/25 00:31:28;;;;;;;1.67;0.70;;;;;;;9.14;95.26;96906.19;4990853;28;20042;-68
2023/12/25 00:33:54;;;;;;;3.38;0.60;;;;;;;9.18;95.05;96915.41;5001649;28;20410;-67
2023/12/25 00:36:21;;;;;;;1.80;0.73;;;;;;;9.19;94.72;96917.06;5002899;28;20654;-67
2023/12/25 00:38:48;;;;;;;5.43;1.55;;;;;;;9.20;94.75;96917.88;5001299;28;20456;-68
2023/12/25 00:41:15;;;;;;;3.38;1.10;;;;;;;9.13;95.41;96912.66;5004660;28;20049;-66
2023/12/25 00:43:41;;;;;;;2.25;0.50;;;;;;;9.16;94.64;96925.69;5000626;28;20046;-67
2023/12/25 00:46:08;;;;;;;5.30;1.00;;;;;;;9.21;94.37;96917.63;5002390;28;20049;-66
2023/12/25 00:48:34;;;;;;;2.70;0.93;;;;;;;9.18;94.61;96938.94;4999788;28;20050;-68
2023/12/25 00:51:01;;;;;;;1.58;0.55;;;;;;;9.20;94.72;96910.59;5000278;28;20528;-66
2023/12/25 00:53:28;;;;;;;1.88;0.65;;;;;;;9.06;95.59;96941.75;5004362;28;20038;-66
2023/12/25 00:55:55;;;;;;;5.00;0.98;;;;;;;9.15;93.87;96929.44;5004672;28;20038;-67
2023/12/25 00:58:21;;;;;;;4.00;0.77;;;;;;;9.20;93.43;96926.81;4998183;28;20048;-68
2023/12/25 01:00:48;;;;;;;5.97;0.73;;;;;;;9.18;93.68;96917.31;4995610;28;20065;-67
2023/12/25 01:03:16;;;;;;;1.10;0.52;;;;;;;9.16;93.82;96916.75;5000304;28;20042;-66
2023/12/25 01:05:42;;;;;;;1.35;0.90;;;;;;;9.16;93.68;96906.78;5002893;28;20052;-66
2023/12/25 01:08:09;;;;;;;2.30;0.65;;;;;;;9.11;93.87;96907.53;5002396;28;20042;-67
2023/12/25 01:10:35;;;;;;;1.33;0.50;;;;;;;9.10;94.11;96902.38;4998176;28;20038;-66
2023/12/25 01:13:02;;;;;;;2.60;0.80;;;;;;;9.11;94.28;96920.22;4999869;28;20038;-66
2023/12/25 01:15:29;;;;;;;3.28;0.90;;;;;;;9.13;94.37;96936.19;5003573;28;20045;-67
2023/12/25 01:17:55;;;;;;;2.35;0.65;;;;;;;9.06;95.20;96926.38;5000141;28;20052;-65
2023/12/25 01:20:22;;;;;;;1.85;0.75;;;;;;;8.95;96.09;96921.91;4999148;28;20097;-67
2023/12/25 01:22:49;;;;;;;2.50;0.50;;;;;;;9.00;95.90;96921.16;4998423;28;20073;-66
2023/12/25 01:25:15;;;;;;;1.95;0.65;;;;;;;8.97;96.05;96917.91;5002412;28;20045;-66
2023/12/25 01:27:42;;;;;;;1.52;0.52;;;;;;;8.87;96.83;96907.00;5002363;28;20113;-66
2023/12/25 01:30:11;;;;;;;1.55;0.60;;;;;;;8.88;96.82;96895.13;5003488;28;20045;-66
2023/12/25 01:32:38;;;;;;;1.73;0.50;;;;;;;8.90;96.94;96905.66;5001452;28;20154;-67
2023/12/25 01:35:05;;;;;;;2.50;0.60;;;;;;;8.88;96.81;96919.41;5003014;28;20060;-67
2023/12/25 01:37:32;;;;;;;1.60;0.52;;;;;;;8.79;97.35;96919.06;4999886;28;20037;-66
2023/12/25 01:39:58;;;;;;;3.10;1.00;;;;;;;8.69;98.28;96924.31;5002008;28;20473;-67
2023/12/25 01:42:25;;;;;;;2.00;0.60;;;;;;;8.69;98.00;96919.75;4995634;28;20529;-66
2023/12/25 01:44:51;;;;;;;3.95;0.90;;;;;;;8.66;98.12;96922.94;4999023;28;20771;-66
2023/12/25 01:47:20;;;;;;;5.05;0.75;;;;;;;8.70;97.91;96913.28;5001416;28;20579;-66
2023/12/25 01:49:47;;;;;;;3.47;1.30;;;;;;;8.68;97.97;96912.72;5002998;28;20034;-68
2023/12/25 01:52:15;;;;;;;2.70;0.77;;;;;;;8.57;98.02;96917.16;4998685;28;20453;-67
2023/12/25 01:54:43;;;;;;;1.80;0.68;;;;;;;8.54;98.44;96916.84;5002667;28;20477;-66
2023/12/25 01:57:11;;;;;;;3.42;0.70;;;;;;;8.49;98.88;96905.94;5001460;28;20049;-66
2023/12/25 01:59:38;;;;;;;1.98;0.60;;;;;;;8.42;99.36;96906.13;5000336;28;20096;-66
2023/12/25 02:02:06;;;;;;;1.23;0.50;;;;;;;8.37;99.96;96909.56;5002470;28;20643;-66
2023/12/25 02:04:32;;;;;;;3.55;1.00;;;;;;;8.43;99.61;96900.50;4999767;28;20050;-67
2023/12/25 02:07:01;;;;;;;0.85;0.47;;;;;;;8.32;100.00;96909.50;5003368;28;20081;-69
2023/12/25 02:09:28;;;;;;;1.10;0.45;;;;;;;8.37;100.00;96909.56;4994013;28;20049;-67
2023/12/25 02:11:54;;;;;;;2.65;0.63;;;;;;;8.34;100.00;96904.69;5000699;28;20637;-66
2023/12/25 02:14:23;;;;;;;2.42;0.68;;;;;;;8.38;100.00;96899.59;5001960;28;20129;-69
2023/12/25 02:16:50;;;;;;;1.35;0.70;;;;;;;8.38;100.00;96910.41;4999160;28;20092;-66
2023/12/25 02:19:26;;;;;;;1.23;0.60;;;;;;;8.33;100.00;96925.44;4997486;28;20030;-66
2023/12/25 02:21:54;;;;;;;0.70;0.40;;;;;;;8.32;100.00;96923.00;5002323;28;20100;-67
2023/12/25 02:24:25;;;;;;;2.20;0.70;;;;;;;8.24;100.00;96915.31;5002175;28;20046;-66
2023/12/25 02:26:51;;;;;;;1.38;0.50;;;;;;;8.20;100.00;96920.41;4999449;28;20129;-66
2023/12/25 02:29:18;;;;;;;2.08;0.63;;;;;;;8.23;100.00;96917.22;5005055;28;20045;-66
2023/12/25 02:31:48;;;;;;;1.50;0.60;;;;;;;8.20;100.00;96913.16;5005654;28;20108;-67
2023/12/25 02:34:15;;;;;;;2.63;0.85;;;;;;;8.29;100.00;96916.22;5005862;28;20054;-66
2023/12/25 02:36:41;;;;;;;3.50;0.98;;;;;;;8.33;100.00;96921.91;5004847;28;20116;-67
2023/12/25 02:39:08;;;;;;;1.55;0.60;;;;;;;8.38;100.00;96924.72;5006929;28;20045;-65
2023/12/25 02:41:34;;;;;;;1.08;0.45;;;;;;;8.44;100.00;96914.81;5005171;28;20745;-65
2023/12/25 02:44:02;;;;;;;1.73;0.57;;;;;;;8.53;100.00;96921.44;5007092;28;20049;-67
2023/12/25 02:46:29;;;;;;;2.05;0.45;;;;;;;8.48;100.00;96913.25;5001526;28;20042;-67
2023/12/25 02:48:55;;;;;;;2.05;0.80;;;;;;;8.45;100.00;96917.22;5004857;28;20082;-67
2023/12/25 02:51:22;;;;;;;1.85;0.52;;;;;;;8.49;99.00;96922.97;5003654;28;20048;-66
2023/12/25 02:53:49;;;;;;;1.42;0.55;;;;;;;8.46;98.88;96921.59;4998329;28;20133;-65
2023/12/25 02:56:15;;;;;;;2.75;0.40;;;;;;;8.51;98.81;96922.72;5002828;28;20659;-67
2023/12/25 02:58:42;;;;;;;1.17;0.50;;;;;;;8.39;99.01;96909.31;5005258;28;20049;-66
2023/12/25 03:01:08;;;;;;;4.03;0.60;;;;;;;8.47;98.56;96925.09;4997661;28;20037;-66
2023/12/25 03:03:35;;;;;;;1.77;0.65;;;;;;;8.52;97.49;96914.34;5005820;28;20053;-65
2023/12/25 03:06:02;;;;;;;2.65;0.70;;;;;;;8.51;97.04;96910.03;5006332;28;20077;-67
2023/12/25 03:08:29;;;;;;;2.97;0.57;;;;;;;8.35;97.31;96900.91;5000955;28;20121;-67
2023/12/25 03:10:56;;;;;;;2.03;0.70;;;;;;;8.37;96.60;96887.97;5006831;28;20034;-66
2023/12/25 03:13:23;;;;;;;1.25;0.40;;;;;;;8.26;96.91;96895.13;4997937;28;20136;-68
2023/12/25 03:15:50;;;;;;;1.52;0.40;;;;;;;8.20;97.10;96885.34;5005540;28;20049;-67
2023/12/25 03:18:16;;;;;;;2.50;0.50;;;;;;;8.25;95.92;96898.91;5002298;28;20386;-66
2023/12/25 03:20:43;;;;;;;2.85;0.70;;;;;;;8.34;94.49;96893.91;4999769;28;20038;-65
2023/12/25 03:23:10;;;;;;;1.75;0.73;;;;;;;8.33;93.87;96889.56;5000182;28;20748;-66
2023/12/25 03:25:36;;;;;;;2.03;0.60;;;;;;;8.25;93.81;96884.63;5003240;28;20053;-65
2023/12/25 03:28:03;;;;;;;2.22;0.50;;;;;;;8.17;93.59;96889.34;5002200;28;20037;-65
2023/12/25 03:30:29;;;;;;;1.15;0.55;;;;;;;8.15;93.21;96883.38;5006025;28;20034;-66
2023/12/25 03:32:56;;;;;;;3.30;0.60;;;;;;;8.22;92.53;96893.19;5017240;28;20074;-66
2023/12/25 03:35:23;;;;;;;2.38;0.60;;;;;;;8.23;92.37;96884.03;4997359;28;20570;-66
2023/12/25 03:37:49;;;;;;;1.17;0.40;;;;;;;8.23;92.35;96895.66;5000387;28;20117;-65
2023/12/25 03:40:16;;;;;;;1.45;0.57;;;;;;;8.28;92.08;96889.50;4998825;28;20046;-67
2023/12/25 03:42:43;;;;;;;1.20;0.55;;;;;;;8.24;91.45;96877.56;5000078;28;20069;-65
2023/12/25 03:45:09;;;;;;;0.93;0.45;;;;;;;8.22;91.81;96888.59;5005920;28;20044;-66
2023/12/25 03:47:36;;;;;;;3.00;0.88;;;;;;;8.25;91.59;96890.00;5005614;28;20038;-65
2023/12/25 03:50:03;;;;;;;3.30;0.68;;;;;;;8.20;91.86;96905.06;5000824;28;20117;-67
2023/12/25 03:52:29;;;;;;;1.45;0.55;;;;;;;8.19;91.94;96889.91;5004990;28;20049;-67
2023/12/25 03:54:56;;;;;;;1.27;0.55;;;;;;;8.23;91.70;96897.50;5005270;28;20042;-65
2023/12/25 03:57:22;;;;;;;0.85;0.40;;;;;;;8.25;91.85;96898.91;5003293;28;20037;-67
2023/12/25 03:59:49;;;;;;;1.13;0.52;;;;;;;8.26;92.03;96892.44;5001710;28;20413;-66
2023/12/25 04:02:15;;;;;;;0.40;0.40;;;;;;;8.26;92.30;96889.72;4999361;28;20050;-65
2023/12/25 04:04:42;;;;;;;1.35;0.40;;;;;;;8.23;92.22;96892.94;5004003;28;20042;-65
2023/12/25 04:07:08;;;;;;;1.58;0.50;;;;;;;8.23;92.64;96894.81;5004410;28;20052;-66
2023/12/25 04:09:35;;;;;;;1.27;0.60;;;;;;;8.17;92.48;96907.41;5001512;28;20042;-67
2023/12/25 04:12:01;;;;;;;1.77;0.65;;;;;;;8.15;92.72;96880.69;5017180;28;20045;-65
2023/12/25 04:14:28;;;;;;;2.88;0.80;;;;;;;8.16;92.49;96893.13;4999926;28;20481;-66
2023/12/25 04:16:55;;;;;;;1.50;0.43;;;;;;;8.10;91.86;96883.31;5003666;28;20041;-67
2023/12/25 04:19:21;;;;;;;1.70;0.57;;;;;;;8.03;92.18;96888.06;5003476;28;20052;-66
2023/12/25 04:21:48;;;;;;;2.05;0.70;;;;;;;8.05;91.59;96892.16;5000138;28;20132;-66
2023/12/25 04:24:15;;;;;;;1.10;0.50;;;;;;;8.02;91.75;96906.13;5000578;28;20141;-66
2023/12/25 04:26:41;;;;;;;2.08;0.52;;;;;;;8.00;91.85;96910.94;4998167;28;20417;-68
2023/12/25 04:29:09;;;;;;;1.33;0.50;;;;;;;8.02;91.81;96908.00;5000387;28;20336;-65
2023/12/25 04:31:36;;;;;;;2.70;0.75;;;;;;;8.08;91.92;96901.63;5001336;28;20521;-66
2023/12/25 04:34:03;;;;;;;2.13;0.80;;;;;;;8.09;91.97;96908.66;5001184;28;20041;-66
2023/12/25 04:36:30;;;;;;;0.77;0.40;;;;;;;8.11;91.40;96905.72;5001099;28;20046;-66
2023/12/25 04:38:58;;;;;;;3.22;0.47;;;;;;;8.10;91.26;96909.47;5003501;28;20045;-65
2023/12/25 04:41:25;;;;;;;0.40;0.30;;;;;;;8.17;90.76;96904.72;4998962;28;20038;-68
2023/12/25 04:43:52;;;;;;;1.20;0.50;;;;;;;8.20;90.67;96901.53;4998415;28;20050;-65
2023/12/25 04:46:19;;;;;;;1.10;0.43;;;;;;;8.16;91.03;96911.19;5002271;28;20462;-65
2023/12/25 04:48:46;;;;;;;1.13;0.60;;;;;;;8.22;90.48;96907.47;5000994;28;20096;-66
2023/12/25 04:51:13;;;;;;;2.45;0.57;;;;;;;8.13;90.90;96900.88;4997356;28;20038;-66
2023/12/25 04:53:40;;;;;;;1.63;0.50;;;;;;;8.17;90.99;96919.03;4999492;28;20050;-65
2023/12/25 04:56:12;;;;;;;1.08;0.50;;;;;;;8.17;91.00;96910.94;5003388;28;20061;-65
2023/12/25 04:58:39;;;;;;;1.27;0.45;;;;;;;8.16;91.33;96920.09;4999004;28;20073;-66
2023/12/25 05:01:06;;;;;;;2.50;0.50;;;;;;;8.10;91.82;96914.88;5002553;28;20041;-66
2023/12/25 05:03:32;;;;;;;0.95;0.52;;;;;;;8.09;91.72;96914.06;5012538;28;20071;-65
2023/12/25 05:05:59;;;;;;;1.40;0.65;;;;;;;8.04;92.08;96916.69;5004492;28;20049;-68
2023/12/25 05:08:27;;;;;;;1.17;0.40;;;;;;;8.00;92.21;96912.84;5013765;28;20556;-65
2023/12/25 05:10:54;;;;;;;1.85;0.45;;;;;;;7.90;92.80;96911.63;4999167;28;20054;-65
2023/12/25 05:13:21;;;;;;;3.25;0.73;;;;;;;7.92;93.18;96914.88;4999678;28;20041;-65
2023/12/25 05:15:48;;;;;;;1.15;0.60;;;;;;;7.99;92.33;96908.53;5001700;28;20633;-66
2023/12/25 05:18:14;;;;;;;1.58;0.45;;;;;;;8.00;92.14;96902.06;4999881;28;20034;-66
2023/12/25 05:20:42;;;;;;;2.85;0.50;;;;;;;7.99;92.07;96898.53;5000746;28;20069;-65
2023/12/25 05:23:08;;;;;;;1.55;0.45;;;;;;;7.92;92.69;96887.09;5000644;28;20097;-64
2023/12/25 05:25:35;;;;;;;0.95;0.40;;;;;;;7.85;93.30;96900.75;5000083;28;20418;-64
2023/12/25 05:28:01;;;;;;;1.67;0.50;;;;;;;7.85;93.58;96899.94;5000976;28;20422;-66
2023/12/25 05:30:28;;;;;;;2.05;0.57;;;;;;;7.79;93.78;96885.56;4997395;28;20454;-66
2023/12/25 05:32:55;;;;;;;2.10;0.68;;;;;;;7.73;93.99;96892.75;4996240;28;20426;-65
2023/12/25 05:35:23;;;;;;;1.33;0.50;;;;;;;7.76;93.04;96886.03;4997727;28;20042;-65
2023/12/25 05:37:50;;;;;;;1.65;0.63;;;;;;;7.73;92.51;96884.66;5003265;28;20061;-66
2023/12/25 05:40:17;;;;;;;1.38;0.50;;;;;;;7.75;92.65;96890.63;4995411;28;20072;-65
2023/12/25 05:42:44;;;;;;;1.42;0.50;;;;;;;7.59;93.70;96872.59;5002115;28;20057;-66
2023/12/25 05:45:10;;;;;;;1.05;0.60;;;;;;;7.53;93.90;96879.78;5003662;28;20057;-65
2023/12/25 05:47:37;;;;;;;0.75;0.40;;;;;;;7.55;94.09;96889.25;4992436;28;20829;-66
2023/12/25 05:50:04;;;;;;;1.48;0.60;;;;;;;7.52;94.78;96870.84;5003201;28;20046;-66
2023/12/25 05:52:30;;;;;;;1.38;0.40;;;;;;;7.49;95.37;96879.41;4996911;28;20064;-66
2023/12/25 05:54:57;;;;;;;1.05;0.50;;;;;;;7.53;95.58;96877.88;4998842;28;20049;-65
2023/12/25 05:57:23;;;;;;;3.08;0.60;;;;;;;7.59;95.10;96892.25;5000459;28;20048;-65
2023/12/25 05:59:50;;;;;;;1.40;0.50;;;;;;;7.57;94.32;96891.69;5003475;28;20049;-65
2023/12/25 06:02:17;;;;;;;1.85;0.40;;;;;;;7.63;93.82;96901.47;5001812;28;20041;-67
2023/12/25 06:04:43;;;;;;;2.25;0.65;;;;;;;7.65;93.15;96893.16;4999505;28;20464;-66
2023/12/25 06:07:11;;;;;;;1.23;0.50;;;;;;;7.62;92.12;96894.47;5001975;28;20045;-65
2023/12/25 06:09:38;;;;;;;0.85;0.50;;;;;;;7.63;92.06;96895.28;5002859;28;20125;-66
2023/12/25 06:12:05;;;;;;;0.80;0.35;;;;;;;7.67;91.77;96909.91;4997872;28;20050;-66
2023/12/25 06:14:31;;;;;;;1.50;0.40;;;;;;;7.63;91.39;96903.38;4992605;28;20104;-65
2023/12/25 06:16:59;;;;;;;0.73;0.40;;;;;;;7.58;91.71;96903.28;4999155;28;20050;-65
2023/12/25 06:19:26;;;;;;;1.40;0.57;;;;;;;7.52;92.34;96905.09;5001788;28;20040;-68
2023/12/25 06:21:53;;;;;;;0.68;0.40;;;;;;;7.53;91.87;96904.81;5003990;28;20529;-65
2023/12/25 06:24:19;;;;;;;2.00;0.50;;;;;;;7.57;91.83;96917.81;5003090;28;20060;-66
2023/12/25 06:26:46;;;;;;;1.50;0.50;;;;;;;7.64;91.18;96915.78;5003034;28;20041;-66
2023/12/25 06:29:13;;;;;;;1.40;0.50;;;;;;;7.68;91.26;96917.72;4998760;28;20045;-65
2023/12/25 06:31:39;;;;;;;1.05;0.50;;;;;;;7.70;90.26;96906.69;4999929;28;20046;-66
2023/12/25 06:34:06;;;;;;;0.75;0.50;;;;;;;7.84;89.34;96909.91;5000385;28;20402;-67
2023/12/25 06:36:32;;;;;;;1.13;0.60;;;;;;;7.66;89.88;96911.78;5002649;28;20042;-66
2023/12/25 06:38:59;;;;;;;1.05;0.50;;;;;;;7.72;89.13;96930.72;5003264;28;20050;-66
2023/12/25 06:41:25;;;;;;;1.77;0.60;;;;;;;7.76;88.72;96915.69;5003115;28;20042;-65
2023/12/25 06:43:52;;;;;;;1.67;0.65;;;;;;;7.64;89.10;96916.59;5002365;28;20118;-65
2023/12/25 06:46:18;;;;;;;0.70;0.45;;;;;;;7.65;88.37;96917.41;5001694;28;20045;-65
2023/12/25 06:48:45;;;;;;;1.63;0.70;;;;;;;7.68;88.44;96922.31;5000376;28;20030;-66
2023/12/25 06:51:12;;;;;;;1.10;0.50;;;;;;;7.65;88.79;96923.63;5002994;28;20034;-67
2023/12/25 06:53:38;;;;;;;0.47;0.40;;;;;;;7.73;87.99;96929.66;5000678;28;20497;-66
2023/12/25 06:56:06;;;;;;;1.27;0.55;;;;;;;7.77;87.22;96926.22;5001463;28;20793;-65
2023/12/25 06:58:33;;;;;;;2.42;0.70;;;;;;;7.73;87.69;96916.19;5001121;28;20038;-65
2023/12/25 07:01:02;;;;;;;0.80;0.45;;;;;;;7.60;88.30;96920.03;5003268;28;20038;-65
2023/12/25 07:03:29;;;;;;;1.80;0.80;;;;;;;7.70;87.93;96917.47;4999790;28;20837;-65
2023/12/25 07:05:56;;;;;;;1.60;0.60;;;;;;;7.61;88.40;96933.25;4999962;28;20128;-65
2023/12/25 07:08:27;;;;;;;2.72;0.80;;;;;;;7.70;88.12;96938.25;5001321;28;20050;-64
2023/12/25 07:10:54;;;;;;;1.25;0.57;;;;;;;7.71;88.28;96947.97;4996035;28;20042;-65
2023/12/25 07:13:21;;;;;;;1.55;0.40;;;;;;;7.72;88.36;96946.88;4999864;28;20050;-64
2023/12/25 07:15:47;;;;;;;1.52;0.50;;;;;;;7.80;87.73;96959.97;5005050;28;20050;-65
2023/12/25 07:18:14;;;;;;;0.85;0.50;;;;;;;7.83;87.15;96951.41;5005917;28;20410;-65
2023/12/25 07:20:41;;;;;;;1.35;0.70;;;;;;;7.78;87.60;96954.81;5005058;28;20048;-65
2023/12/25 07:23:07;;;;;;;1.02;0.50;;;;;;;7.84;87.20;96944.09;5001299;28;20049;-65
2023/12/25 07:25:34;;;;;;;0.80;0.40;;;;;;;7.94;86.86;96953.22;5001723;28;20044;-64
2023/12/25 07:28:01;;;;;;;1.17;0.50;;;;;;;7.91;87.17;96940.22;5006239;28;20512;-64
2023/12/25 07:30:27;;;;;;;1.33;0.40;;;;;;;7.86;87.75;96944.69;5004202;28;20103;-69
2023/12/25 07:32:54;;;;;;;1.10;0.50;;;;;;;7.86;88.03;96947.38;5004061;28;20096;-65
2023/12/25 07:35:20;;;;;;;1.85;0.90;;;;;;;7.86;88.19;96952.78;5002827;28;20484;-65
2023/12/25 07:37:48;;;;;;;1.23;0.60;;;;;;;7.84;88.54;96963.81;5001354;28;22246;-66
2023/12/25 07:40:15;;;;;;;1.15;0.40;;;;;;;7.95;87.20;96975.56;4997776;28;20498;-64
2023/12/25 07:42:43;;;;;;;1.70;0.50;;;;;;;7.96;87.91;96973.69;5000656;28;20038;-68
2023/12/25 07:45:13;;;;;;;1.42;0.70;;;;;;;8.02;87.79;96968.16;5001788;28;20053;-67
2023/12/25 07:47:39;;;;;;;1.65;0.70;;;;;;;8.02;87.76;96972.72;5001001;28;20045;-66
2023/12/25 07:50:08;;;;;;;1.25;0.55;;;;;;;8.02;88.13;96967.31;5000146;28;20046;-65
2023/12/25 07:52:34;;;;;;;2.42;0.80;;;;;;;8.07;88.47;96968.22;5001687;28;20038;-65
2023/12/25 07:55:00;;;;;;;0.60;0.50;;;;;;;7.99;89.47;96981.31;5002868;28;20052;-65
2023/12/25 07:57:27;;;;;;;1.17;0.55;;;;;;;8.04;89.53;96976.00;5002485;28;20038;-66
2023/12/25 07:59:53;;;;;;;2.85;1.20;;;;;;;7.94;90.56;96966.69;4999471;28;20045;-66
2023/12/25 08:02:20;;;;;;;1.33;0.60;;;;;;;7.94;90.26;96974.78;4996728;28;20097;-65
2023/12/25 08:04:46;;;;;;;1.95;0.70;;;;;;;7.92;90.16;96987.66;4999775;28;20061;-65
2023/12/25 08:07:13;;;;;;;1.63;0.63;;;;;;;7.91;89.86;96996.81;5003063;28;20518;-66
2023/12/25 08:09:39;;;;;;;1.17;0.50;;;;;;;7.88;90.29;96988.38;5001502;28;20112;-67
2023/12/25 08:12:06;;;;;;;1.13;0.52;;;;;;;7.88;90.07;96985.69;4999622;28;20041;-65
2023/12/25 08:14:33;;;;;;;2.50;0.80;;;;;;;7.87;90.45;96989.44;5002810;28;20080;-65
2023/12/25 08:17:00;;;;;;;1.17;0.70;;;;;;;7.93;90.38;96986.59;5003849;28;20050;-66
2023/12/25 08:19:26;;;;;;;2.40;0.68;;;;;;;8.00;90.23;97001.81;5000347;28;20042;-65
2023/12/25 08:21:53;;;;;;;2.03;0.68;;;;;;;8.01;90.40;97012.34;5002126;28;20720;-65
2023/12/25 08:24:25;;;;;;;0.95;0.50;;;;;;;8.03;90.46;97022.88;5002526;28;20126;-65
2023/12/25 08:26:51;;;;;;;1.58;0.60;;;;;;;8.05;90.94;97021.59;4999150;28;20076;-66
2023/12/25 08:29:19;;;;;;;1.08;0.40;;;;;;;8.24;91.74;97026.72;5002813;28;20549;-65
2023/12/25 08:31:45;;;;;;;0.90;0.50;;;;;;;8.31;91.65;97013.06;5002901;28;20667;-64
2023/12/25 08:34:12;;;;;;;0.93;0.40;;;;;;;8.16;92.64;97021.75;4998831;28;20056;-65
2023/12/25 08:36:38;;;;;;;1.60;0.70;;;;;;;8.18;92.44;97023.13;5001527;28;20088;-64
2023/12/25 08:39:05;;;;;;;0.70;0.55;;;;;;;8.25;91.99;97035.66;4994525;28;20510;-65
2023/12/25 08:41:31;;;;;;;1.73;0.65;;;;;;;8.29;91.40;97029.50;4998214;28;20264;-65
2023/12/25 08:43:58;;;;;;;2.55;0.50;;;;;;;8.33;92.06;97016.34;5002540;28;20048;-66
2023/12/25 08:46:25;;;;;;;0.93;0.43;;;;;;;8.32;92.68;97012.00;4998408;28;20052;-65
2023/12/25 08:48:51;;;;;;;1.02;0.60;;;;;;;8.33;93.13;97016.34;4998953;28;20049;-65
2023/12/25 08:51:18;;;;;;;1.73;0.60;;;;;;;8.31;94.47;97015.78;4994955;28;20050;-66
2023/12/25 08:53:45;;;;;;;0.73;0.40;;;;;;;8.50;94.63;97020.91;5001891;28;20077;-65
2023/12/25 08:56:11;;;;;;;1.77;0.50;;;;;;;8.67;94.18;97018.22;5002320;28;20061;-64
2023/12/25 08:58:39;;;;;;;1.20;0.52;;;;;;;8.63;94.49;97033.28;5000464;28;20054;-65
2023/12/25 09:01:06;;;;;;;0.50;0.40;;;;;;;8.64;94.64;97030.34;5002451;28;20673;-66
2023/12/25 09:03:32;;;;;;;1.05;0.93;;;;;;;8.59;95.71;97012.19;4998610;28;20509;-47
2023/12/25 09:05:59;;;;;;;0.60;0.30;;;;;;;8.60;96.60;97015.69;5001439;28;20065;-46
2023/12/25 09:08:26;;;;;;;0.90;0.43;;;;;;;8.50;97.73;97020.91;4998392;28;20045;-46
2023/12/25 09:10:52;;;;;;;2.90;0.47;;;;;;;8.44;98.75;97030.81;5000891;28;20069;-47
2023/12/25 09:13:19;;;;;;;1.42;0.40;;;;;;;8.49;98.99;97028.19;5002211;28;20056;-49
2023/12/25 09:15:45;;;;;;;1.45;0.40;;;;;;;8.47;99.80;97033.00;5001644;28;20527;-50
2023/12/25 09:18:12;;;;;;;1.48;0.40;;;;;;;8.48;100.00;97039.22;4999487;28;20770;-52
2023/12/25 09:20:39;;;;;;;0.68;0.40;;;;;;;8.51;100.00;97046.84;4998283;28;20038;-60
2023/12/25 09:23:06;;;;;;;4.55;0.55;;;;;;;8.54;100.00;97051.75;4997061;28;20045;-61
2023/12/25 09:25:32;;;;;;;0.30;0.28;;;;;;;8.55;100.00;97061.50;5001633;28;20030;-61
2023/12/25 09:27:59;;;;;;;0.50;0.30;;;;;;;8.45;100.00;97070.22;4999461;28;20858;-61
2023/12/25 09:30:25;;;;;;;0.73;0.40;;;;;;;8.48;100.00;97063.53;5001748;28;20514;-61
2023/12/25 09:32:52;;;;;;;1.02;0.45;;;;;;;8.49;100.00;97068.69;4995243;28;20418;-61
2023/12/25 09:35:19;;;;;;;0.75;0.30;;;;;;;8.55;100.00;97061.50;4995214;28;20748;-62
2023/12/25 09:37:45;;;;;;;0.85;0.30;;;;;;;8.52;100.00;97062.75;4996869;28;20045;-61
2023/12/25 09:40:12;;;;;;;0.60;0.30;;;;;;;8.51;100.00;97076.53;5000761;28;20057;-61
2023/12/25 09:42:38;;;;;;;1.65;0.55;;;;;;;8.51;100.00;97052.25;5001730;28;20131;-61
2023/12/25 09:45:09;;;;;;;2.22;0.47;;;;;;;8.54;100.00;97071.47;4996506;28;20046;-61
2023/12/25 09:47:36;;;;;;;0.53;0.27;;;;;;;8.57;100.00;97067.47;5000633;28;20725;-61
2023/12/25 09:50:05;;;;;;;1.13;0.30;;;;;;;8.58;100.00;97064.53;4995266;28;20095;-62
2023/12/25 09:52:32;;;;;;;1.48;0.32;;;;;;;8.59;100.00;97076.16;4998150;28;20573;-61
2023/12/25 09:54:59;;;;;;;1.23;0.30;;;;;;;8.63;100.00;97061.09;4997963;28;20410;-61
2023/12/25 09:57:29;;;;;;;0.50;0.30;;;;;;;8.62;100.00;97059.44;5001691;28;20060;-62
2023/12/25 09:59:56;;;;;;;0.22;0.20;;;;;;;8.70;100.00;97060.91;4995026;28;20770;-60
2023/12/25 10:02:23;;;;;;;0.35;0.22;;;;;;;8.63;100.00;97053.00;4989803;28;20051;-60
2023/12/25 10:04:50;;;;;;;0.80;0.32;;;;;;;8.55;100.00;97054.22;4989824;28;20078;-62
2023/12/25 10:07:20;;;;;;;0.95;0.40;;;;;;;8.65;100.00;97042.75;4998686;28;20171;-62
2023/12/25 10:09:57;;;;;;;0.60;0.20;;;;;;;8.64;100.00;97040.31;4995879;28;20044;-62
2023/12/25 10:12:25;;;;;;;0.77;0.35;;;;;;;8.58;100.00;97040.25;4997276;28;20401;-62
2023/12/25 10:14:51;;;;;;;1.48;0.55;;;;;;;8.63;100.00;97036.81;4997073;28;20052;-61
2023/12/25 10:17:18;;;;;;;0.98;0.38;;;;;;;8.71;100.00;97041.75;4998556;28;20125;-62
2023/12/25 10:19:50;;;;;;;0.20;0.20;;;;;;;8.75;100.00;97043.97;4998135;28;20042;-61
2023/12/25 10:22:34;;;;;;;0.30;0.20;;;;;;;8.70;100.00;97028.53;5001415;28;20046;-61
2023/12/25 10:25:11;;;;;;;0.60;0.20;;;;;;;8.77;100.00;97028.34;4999899;28;20616;-62
2023/12/25 10:27:40;;;;;;;2.33;0.30;;;;;;;8.80;100.00;97030.53;4984724;28;20615;-63
2023/12/25 10:30:17;;;;;;;0.43;0.30;;;;;;;8.72;100.00;97029.09;4988318;28;20104;-63
2023/12/25 10:32:44;;;;;;;1.40;0.60;;;;;;;8.81;100.00;97016.78;4984211;28;20039;-61
2023/12/25 10:35:14;;;;;;;0.50;0.20;;;;;;;8.94;100.00;97010.22;5000090;28;20057;-62
2023/12/25 10:37:41;;;;;;;1.80;0.38;;;;;;;8.99;100.00;97006.75;4996509;28;20038;-61
2023/12/25 10:40:17;;;;;;;0.20;0.20;;;;;;;9.13;100.00;97004.50;4999916;28;20057;-61
2023/12/25 10:42:49;;;;;;;0.30;0.20;;;;;;;9.11;100.00;97006.66;4997912;28;20052;-62
2023/12/25 10:45:24;;;;;;;0.80;0.20;;;;;;;9.06;100.00;97026.31;5001253;28;20050;-63
2023/12/25 10:48:03;;;;;;;0.30;0.20;;;;;;;9.05;100.00;97007.63;4998116;28;20852;-61
2023/12/25 10:50:36;;;;;;;0.10;0.10;;;;;;;8.98;100.00;97014.06;4997560;28;20050;-62
2023/12/25 10:53:05;;;;;;;0.50;0.20;;;;;;;8.89;100.00;97012.88;4998348;28;20038;-62
2023/12/25 10:55:42;;;;;;;0.47;0.20;;;;;;;9.04;100.00;97003.31;5001168;28;20440;-62
2023/12/25 10:58:12;;;;;;;1.45;0.20;;;;;;;9.12;100.00;97008.28;5002694;28;20916;-60
2023/12/25 11:00:59;;;;;;;0.20;0.15;;;;;;;8.95;100.00;97006.44;4997715;28;20065;-60
2023/12/25 11:03:28;;;;;;;0.20;0.10;;;;;;;9.06;100.00;96998.47;5002392;28;20594;-60
2023/12/25 11:05:56;;;;;;;0.20;0.20;;;;;;;9.01;100.00;96990.31;5001235;28;20042;-62
2023/12/25 11:08:23;;;;;;;0.15;0.10;;;;;;;8.97;100.00;97006.22;5002756;28;20050;-61
2023/12/25 11:11:03;;;;;;;2.40;0.30;;;;;;;9.01;100.00;97006.50;5001830;28;20674;-61
2023/12/25 11:13:31;;;;;;;0.95;0.20;;;;;;;9.03;100.00;97007.88;4999727;28;20041;-61
2023/12/25 11:15:57;;;;;;;0.30;0.20;;;;;;;8.93;100.00;97010.47;4990645;28;20045;-61
2023/12/25 11:18:24;;;;;;;0.20;0.20;;;;;;;8.95;100.00;97006.44;5000493;28;20054;-62
2023/12/25 11:21:08;;;;;;;0.25;0.17;;;;;;;8.90;100.00;97005.56;4999643;28;20156;-62
2023/12/25 11:23:37;;;;;;;0.20;0.20;;;;;;;8.86;100.00;97007.97;5001481;28;20521;-60
2023/12/25 11:26:12;;;;;;;0.60;0.40;;;;;;;8.96;100.00;97024.28;5004071;28;20507;-61
2023/12/25 11:28:54;;;;;;;0.38;0.20;;;;;;;9.00;100.00;97021.09;5001641;28;20502;-63
2023/12/25 11:31:21;;;;;;;1.38;0.45;;;;;;;9.01;100.00;97028.13;5002376;28;20042;-63
2023/12/25 11:33:48;;;;;;;1.42;0.43;;;;;;;9.00;100.00;97018.38;5000009;28;20046;-62
2023/12/25 11:36:17;;;;;;;0.65;0.25;;;;;;;8.99;100.00;97033.75;5002526;28;20061;-61
2023/12/25 11:38:53;;;;;;;0.52;0.20;;;;;;;9.08;100.00;97034.16;4997746;28;20122;-62
2023/12/25 11:41:20;;;;;;;0.98;0.32;;;;;;;9.05;100.00;97021.16;5002918;28;20049;-62